Time;durP1;ratioP1;P1;durP2;ratioP2;P2;SDS_P1;SDS_P2;PMS_P1;PMS_P2;Temp;Humidity;BMP_temperature;BMP_pressure;BME280_temperature;BME280_humidity;BME280_pressure;Samples;Min_cycle;Max_cycle;Signal;HPM_P1;HPM_P2
2023/02/28 00:00:26;;;;;;;9.77;4.55;;;4.20;99.90;;;;;;7370001;19;20022;-66
2023/02/28 00:02:53;;;;;;;9.05;4.55;;;4.20;99.90;;;;;;7368677;19;20026;-66
2023/02/28 00:05:23;;;;;;;13.10;4.40;;;4.20;99.90;;;;;;7367865;19;20029;-66
2023/02/28 00:07:50;;;;;;;8.07;3.47;;;4.30;99.90;;;;;;7371830;19;20022;-66
2023/02/28 00:10:20;;;;;;;6.30;3.92;;;4.30;99.90;;;;;;7369442;19;20010;-65
2023/02/28 00:13:00;;;;;;;9.93;4.05;;;4.20;99.90;;;;;;7368332;19;20022;-65
2023/02/28 00:15:27;;;;;;;9.55;4.18;;;4.30;99.90;;;;;;7371713;19;20014;-66
2023/02/28 00:17:53;;;;;;;9.48;4.13;;;4.30;99.90;;;;;;7370969;19;20048;-65
2023/02/28 00:20:20;;;;;;;11.63;4.28;;;4.30;99.90;;;;;;7368569;19;20019;-66
2023/02/28 00:22:49;;;;;;;8.57;5.25;;;4.30;99.90;;;;;;7371772;19;20018;-61
2023/02/28 00:25:19;;;;;;;7.97;4.03;;;4.30;99.90;;;;;;7369475;19;20022;-61
2023/02/28 00:27:46;;;;;;;9.27;4.82;;;4.30;99.90;;;;;;7374175;19;20010;-61
2023/02/28 00:30:15;;;;;;;7.03;4.13;;;4.30;99.90;;;;;;7368560;19;20689;-61
2023/02/28 00:32:43;;;;;;;9.55;4.43;;;4.30;99.90;;;;;;7371250;19;20011;-61
2023/02/28 00:35:11;;;;;;;13.43;4.07;;;4.30;99.90;;;;;;7373345;19;20052;-61
2023/02/28 00:37:37;;;;;;;8.40;4.00;;;4.40;99.90;;;;;;7372096;19;20050;-61
2023/02/28 00:40:06;;;;;;;11.77;4.43;;;4.30;99.90;;;;;;7373188;19;20680;-66
2023/02/28 00:42:34;;;;;;;10.95;5.13;;;4.40;99.90;;;;;;7371119;19;20438;-66
2023/02/28 00:45:01;;;;;;;9.25;4.28;;;4.30;99.90;;;;;;7372022;19;20493;-66
2023/02/28 00:47:27;;;;;;;9.90;4.57;;;4.30;99.90;;;;;;7372158;19;20030;-66
2023/02/28 00:49:53;;;;;;;9.38;4.30;;;4.30;99.90;;;;;;7369657;19;20521;-66
2023/02/28 00:52:21;;;;;;;9.20;4.65;;;4.40;99.90;;;;;;7377533;19;20035;-66
2023/02/28 00:54:47;;;;;;;13.45;5.45;;;4.40;99.90;;;;;;7380570;19;20022;-66
2023/02/28 00:57:14;;;;;;;9.80;4.88;;;4.40;99.90;;;;;;7378365;19;20022;-66
2023/02/28 00:59:41;;;;;;;14.38;4.85;;;4.30;99.90;;;;;;7378713;19;20010;-66
2023/02/28 01:02:07;;;;;;;9.63;3.95;;;4.30;99.90;;;;;;7379877;19;20992;-66
2023/02/28 01:04:33;;;;;;;10.40;4.68;;;4.30;99.90;;;;;;7378949;19;20014;-65
2023/02/28 01:07:03;;;;;;;8.90;4.90;;;4.30;99.90;;;;;;7380155;19;20026;-66
2023/02/28 01:09:29;;;;;;;9.40;4.45;;;4.30;99.90;;;;;;7378783;19;20486;-66
2023/02/28 01:11:56;;;;;;;11.15;4.82;;;4.30;99.90;;;;;;7382542;19;20410;-66
2023/02/28 01:14:22;;;;;;;9.43;4.45;;;4.30;99.90;;;;;;7379056;19;20093;-61
2023/02/28 01:16:48;;;;;;;7.95;3.90;;;4.30;99.90;;;;;;7382630;19;20907;-61
2023/02/28 01:19:15;;;;;;;8.55;4.13;;;4.30;99.90;;;;;;7379149;19;20019;-61
2023/02/28 01:21:42;;;;;;;9.63;4.38;;;4.30;99.90;;;;;;7378811;19;20019;-61
2023/02/28 01:24:08;;;;;;;7.63;4.63;;;4.30;99.90;;;;;;7373818;19;20014;-62
2023/02/28 01:26:35;;;;;;;9.35;4.47;;;4.40;99.90;;;;;;7378048;19;20058;-61
2023/02/28 01:29:02;;;;;;;9.63;4.18;;;4.30;99.90;;;;;;7379138;19;20130;-62
2023/02/28 01:31:28;;;;;;;9.02;4.28;;;4.30;99.90;;;;;;7379130;19;20022;-61
2023/02/28 01:33:58;;;;;;;8.85;4.03;;;4.30;99.90;;;;;;7376389;19;20128;-61
2023/02/28 01:36:28;;;;;;;;;;;4.30;99.90;;;;;;7379693;19;20481;-61
2023/02/28 01:38:56;;;;;;;7.88;3.75;;;4.30;99.90;;;;;;7375164;19;19918;-61
2023/02/28 01:41:29;;;;;;;7.50;4.07;;;4.30;99.90;;;;;;7375632;19;20026;-61
2023/02/28 01:44:24;;;;;;;6.22;3.60;;;4.30;99.90;;;;;;7375704;19;20401;-62
2023/02/28 01:46:51;;;;;;;10.63;4.40;;;4.30;99.90;;;;;;7378435;19;20082;-61
2023/02/28 01:49:18;;;;;;;9.00;4.15;;;4.30;99.90;;;;;;7375701;19;20015;-66
2023/02/28 01:51:52;;;;;;;7.28;4.00;;;4.30;99.90;;;;;;7376783;19;20461;-66
2023/02/28 01:54:30;;;;;;;7.95;4.13;;;4.20;99.90;;;;;;7376133;19;20502;-66
2023/02/28 01:57:12;;;;;;;7.25;3.70;;;4.30;99.90;;;;;;7376702;19;20022;-66
2023/02/28 02:00:00;;;;;;;8.68;4.25;;;4.20;99.90;;;;;;7374876;19;20545;-66
2023/02/28 02:02:29;;;;;;;8.00;4.03;;;4.20;99.90;;;;;;7369503;19;20019;-66
2023/02/28 02:05:37;;;;;;;6.70;3.83;;;4.20;99.90;;;;;;7369665;19;20019;-66
2023/02/28 02:08:16;;;;;;;8.25;5.38;;;4.20;99.90;;;;;;7377370;19;20843;-66
2023/02/28 02:10:47;;;;;;;8.60;4.55;;;4.10;99.90;;;;;;7377200;19;20006;-66
2023/02/28 02:13:49;;;;;;;8.23;4.80;;;4.10;99.90;;;;;;7376157;19;20066;-66
2023/02/28 02:16:35;;;;;;;9.17;4.70;;;4.10;99.90;;;;;;7373157;19;20373;-66
2023/02/28 02:19:37;;;;;;;12.05;5.07;;;4.00;99.90;;;;;;7377219;19;20086;-66
2023/02/28 02:22:37;;;;;;;6.77;4.67;;;4.10;99.90;;;;;;7376843;19;20010;-66
2023/02/28 02:25:26;;;;;;;9.70;4.85;;;4.10;99.90;;;;;;7374362;19;20110;-62
2023/02/28 02:27:56;;;;;;;11.55;5.47;;;4.00;99.90;;;;;;7377290;19;20085;-66
2023/02/28 02:30:41;;;;;;;9.68;4.38;;;4.00;99.90;;;;;;7365215;19;20026;-66
2023/02/28 02:33:22;;;;;;;8.93;4.65;;;4.00;99.90;;;;;;7376385;19;20023;-66
2023/02/28 02:36:00;;;;;;;7.82;4.68;;;4.00;99.90;;;;;;7374371;19;20011;-66
2023/02/28 02:38:45;;;;;;;8.07;4.93;;;4.00;99.90;;;;;;7375566;19;20066;-62
2023/02/28 02:41:36;;;;;;;7.50;4.40;;;4.00;99.90;;;;;;7377938;19;20083;-61
2023/02/28 02:44:36;;;;;;;11.35;4.85;;;3.90;99.90;;;;;;7375223;19;20030;-61
2023/02/28 02:47:11;;;;;;;9.18;4.22;;;3.90;99.90;;;;;;7376044;19;20018;-65
2023/02/28 02:49:42;;;;;;;8.30;4.70;;;3.90;99.90;;;;;;7374938;19;20022;-65
2023/02/28 02:52:12;;;;;;;10.48;4.72;;;3.90;99.90;;;;;;7374338;19;20434;-66
2023/02/28 02:54:48;;;;;;;9.93;5.28;;;3.90;99.90;;;;;;7374316;19;20019;-65
2023/02/28 02:57:27;;;;;;;12.35;4.82;;;3.80;99.90;;;;;;7372486;19;20110;-61
2023/02/28 02:59:56;;;;;;;10.43;5.68;;;3.80;99.90;;;;;;7374701;19;20029;-61
2023/02/28 03:02:23;;;;;;;9.93;5.80;;;3.80;99.90;;;;;;7374568;19;20014;-61
2023/02/28 03:05:00;;;;;;;15.73;5.68;;;3.80;99.90;;;;;;7372973;19;20022;-61
2023/02/28 03:07:27;;;;;;;10.63;5.30;;;3.80;99.90;;;;;;7372484;19;20035;-61
2023/02/28 03:09:56;;;;;;;8.65;5.57;;;3.80;99.90;;;;;;7375520;19;20019;-61
2023/02/28 03:12:53;;;;;;;11.25;5.93;;;3.70;99.90;;;;;;7374554;19;20026;-65
2023/02/28 03:15:32;;;;;;;11.70;6.20;;;3.70;99.90;;;;;;7371729;19;20025;-61
2023/02/28 03:18:08;;;;;;;8.40;6.47;;;3.70;99.90;;;;;;7376273;19;20018;-60
2023/02/28 03:20:43;;;;;;;10.00;6.22;;;3.70;99.90;;;;;;7372724;19;20014;-65
2023/02/28 03:23:30;;;;;;;14.25;7.03;;;3.60;99.90;;;;;;7377446;19;20138;-65
2023/02/28 03:26:07;;;;;;;12.95;8.00;;;3.60;99.90;;;;;;7374292;19;20026;-65
2023/02/28 03:28:51;;;;;;;11.88;8.77;;;3.60;99.90;;;;;;7375386;19;20022;-65
2023/02/28 03:31:17;;;;;;;14.68;9.68;;;3.50;99.90;;;;;;7373618;19;20098;-65
2023/02/28 03:33:55;;;;;;;16.52;10.23;;;3.50;99.90;;;;;;7376486;19;20019;-65
2023/02/28 03:36:54;;;;;;;15.93;10.57;;;3.40;99.90;;;;;;7375185;19;20015;-65
2023/02/28 03:39:34;;;;;;;21.25;12.02;;;3.40;99.90;;;;;;7369714;19;20021;-61
2023/02/28 03:42:23;;;;;;;17.77;11.48;;;3.40;99.90;;;;;;7369736;19;20022;-65
2023/02/28 03:45:01;;;;;;;20.55;13.30;;;3.40;99.90;;;;;;7375543;19;20395;-61
2023/02/28 03:47:40;;;;;;;15.88;12.95;;;3.40;99.90;;;;;;7373338;19;20018;-61
2023/02/28 03:50:27;;;;;;;18.15;12.40;;;3.40;99.90;;;;;;7372997;19;20393;-61
2023/02/28 03:53:04;;;;;;;17.98;12.00;;;3.40;99.90;;;;;;7374440;19;20022;-61
2023/02/28 03:55:39;;;;;;;22.50;13.23;;;3.40;99.90;;;;;;7370482;19;20028;-61
2023/02/28 03:58:16;;;;;;;18.42;12.68;;;3.40;99.90;;;;;;7369405;19;20876;-61
2023/02/28 04:00:50;;;;;;;18.92;13.45;;;3.40;99.90;;;;;;7369374;19;20027;-61
2023/02/28 04:03:16;;;;;;;20.35;12.98;;;3.40;99.90;;;;;;7369403;19;20042;-61
2023/02/28 04:06:01;;;;;;;19.58;12.73;;;3.40;99.90;;;;;;7368535;19;20816;-60
2023/02/28 04:08:28;;;;;;;20.77;12.73;;;3.40;99.90;;;;;;7370296;19;20031;-61
2023/02/28 04:11:27;;;;;;;18.77;12.50;;;3.40;99.90;;;;;;7367999;19;20018;-61
2023/02/28 04:13:56;;;;;;;19.23;12.35;;;3.40;99.90;;;;;;7365471;19;20023;-61
2023/02/28 04:16:22;;;;;;;17.95;12.40;;;3.40;99.90;;;;;;7370226;19;20022;-61
2023/02/28 04:18:49;;;;;;;19.77;12.77;;;3.40;99.90;;;;;;7367325;19;20501;-65
2023/02/28 04:21:15;;;;;;;18.63;13.13;;;3.40;99.90;;;;;;7369728;19;20846;-65
2023/02/28 04:23:41;;;;;;;19.25;12.98;;;3.40;99.90;;;;;;7367057;19;20021;-65
2023/02/28 04:26:08;;;;;;;16.33;12.20;;;3.40;99.90;;;;;;7370006;19;20051;-65
2023/02/28 04:28:34;;;;;;;19.25;12.30;;;3.40;99.90;;;;;;7371242;19;20057;-65
2023/02/28 04:31:04;;;;;;;19.02;13.23;;;3.40;99.90;;;;;;7371958;19;20347;-65
2023/02/28 04:33:32;;;;;;;19.10;13.05;;;3.30;99.90;;;;;;7374727;19;20764;-65
2023/02/28 04:36:08;;;;;;;17.35;13.02;;;3.40;99.90;;;;;;7375392;19;20662;-64
2023/02/28 04:38:37;;;;;;;20.55;14.50;;;3.30;99.90;;;;;;7376660;19;20618;-64
2023/02/28 04:41:04;;;;;;;24.15;14.05;;;3.30;99.90;;;;;;7378283;19;20023;-65
2023/02/28 04:43:30;;;;;;;23.40;14.95;;;3.30;99.90;;;;;;7374328;19;20025;-65
2023/02/28 04:46:00;;;;;;;35.67;23.33;;;3.30;99.90;;;;;;7374666;19;20019;-66
2023/02/28 04:48:31;;;;;;;30.58;19.27;;;3.30;99.90;;;;;;7376953;19;20022;-65
2023/02/28 04:51:06;;;;;;;26.20;18.60;;;3.30;99.90;;;;;;7374482;19;20015;-62
2023/02/28 04:53:33;;;;;;;28.40;16.80;;;3.30;99.90;;;;;;7374946;19;20758;-61
2023/02/28 04:55:59;;;;;;;20.50;14.88;;;3.30;99.90;;;;;;7374474;19;20021;-65
2023/02/28 04:58:26;;;;;;;21.60;14.38;;;3.30;99.90;;;;;;7375918;19;20057;-65
2023/02/28 05:00:53;;;;;;;22.40;13.77;;;3.30;99.90;;;;;;7375967;19;20772;-65
2023/02/28 05:03:20;;;;;;;22.42;14.18;;;3.20;99.90;;;;;;7373877;19;20029;-65
2023/02/28 05:05:47;;;;;;;21.80;13.93;;;3.20;99.90;;;;;;7376321;19;20011;-66
2023/02/28 05:08:14;;;;;;;21.40;14.32;;;3.20;99.90;;;;;;7376609;19;20363;-65
2023/02/28 05:10:40;;;;;;;22.40;13.70;;;3.20;99.90;;;;;;7374122;19;20018;-64
2023/02/28 05:13:09;;;;;;;23.98;13.93;;;3.20;99.90;;;;;;7373328;19;20015;-65
2023/02/28 05:15:35;;;;;;;19.15;14.18;;;3.20;99.90;;;;;;7373231;19;20086;-66
2023/02/28 05:18:01;;;;;;;21.65;14.73;;;3.10;99.90;;;;;;7377284;19;20018;-64
2023/02/28 05:20:28;;;;;;;20.45;14.10;;;3.10;99.90;;;;;;7377505;19;20022;-65
2023/02/28 05:22:54;;;;;;;19.08;13.85;;;3.10;99.90;;;;;;7375342;19;20022;-65
2023/02/28 05:25:22;;;;;;;27.45;16.58;;;3.10;99.90;;;;;;7369748;19;20025;-65
2023/02/28 05:27:49;;;;;;;20.58;14.45;;;3.10;99.90;;;;;;7367298;19;20022;-61
2023/02/28 05:30:16;;;;;;;19.92;14.40;;;3.10;99.90;;;;;;7372056;19;20027;-62
2023/02/28 05:32:42;;;;;;;22.92;15.20;;;3.10;99.90;;;;;;7372055;19;20116;-62
2023/02/28 05:35:11;;;;;;;25.85;15.18;;;3.10;99.90;;;;;;7367973;19;20105;-66
2023/02/28 05:37:39;;;;;;;24.52;15.50;;;3.00;99.90;;;;;;7366859;19;20024;-61
2023/02/28 05:40:11;;;;;;;22.88;16.05;;;3.10;99.90;;;;;;7369415;19;22059;-61
2023/02/28 05:42:38;;;;;;;23.08;13.77;;;3.10;99.90;;;;;;7373352;19;20014;-61
2023/02/28 05:45:06;;;;;;;21.50;14.50;;;3.10;99.90;;;;;;7371938;19;20023;-65
2023/02/28 05:47:33;;;;;;;23.00;15.63;;;3.00;99.90;;;;;;7371386;19;20015;-65
2023/02/28 05:50:00;;;;;;;24.65;15.43;;;3.10;99.90;;;;;;7369554;19;20496;-65
2023/02/28 05:52:29;;;;;;;22.30;14.13;;;3.10;99.90;;;;;;7370470;19;20019;-65
2023/02/28 05:54:56;;;;;;;21.50;14.05;;;3.10;99.90;;;;;;7372186;19;20189;-64
2023/02/28 05:57:23;;;;;;;22.75;14.48;;;3.10;99.90;;;;;;7367700;19;20078;-65
2023/02/28 05:59:49;;;;;;;19.48;13.70;;;3.10;99.90;;;;;;7370145;19;20953;-65
2023/02/28 06:02:17;;;;;;;22.02;14.70;;;3.00;99.90;;;;;;7368135;19;20025;-65
2023/02/28 06:04:44;;;;;;;22.50;15.48;;;3.00;99.90;;;;;;7372434;19;20572;-64
2023/02/28 06:07:10;;;;;;;19.77;14.57;;;3.00;99.90;;;;;;7370718;19;20037;-64
2023/02/28 06:09:37;;;;;;;21.40;14.85;;;3.00;99.90;;;;;;7369285;19;20062;-61
2023/02/28 06:12:06;;;;;;;27.10;15.00;;;3.00;99.90;;;;;;7370209;19;20025;-64
2023/02/28 06:14:34;;;;;;;19.35;13.30;;;3.00;99.90;;;;;;7370484;19;20029;-61
2023/02/28 06:17:01;;;;;;;21.80;14.57;;;2.90;99.90;;;;;;7372655;19;20045;-61
2023/02/28 06:19:28;;;;;;;22.63;14.75;;;2.90;99.90;;;;;;7373875;19;20030;-61
2023/02/28 06:21:56;;;;;;;23.48;16.58;;;2.90;99.90;;;;;;7370035;19;20406;-61
2023/02/28 06:24:24;;;;;;;22.80;15.38;;;2.80;99.90;;;;;;7371003;19;20023;-61
2023/02/28 06:26:51;;;;;;;27.60;16.50;;;2.80;99.90;;;;;;7374092;19;20022;-61
2023/02/28 06:29:18;;;;;;;23.85;16.58;;;2.80;99.90;;;;;;7370301;19;20026;-65
2023/02/28 06:31:45;;;;;;;24.42;17.42;;;2.80;99.90;;;;;;7368648;19;20015;-65
2023/02/28 06:34:13;;;;;;;23.55;16.33;;;2.80;99.90;;;;;;7369018;19;20018;-65
2023/02/28 06:36:43;;;;;;;22.05;15.82;;;2.80;99.90;;;;;;7370407;19;20023;-62
2023/02/28 06:39:09;;;;;;;24.48;17.20;;;2.80;99.90;;;;;;7367986;19;20485;-61
2023/02/28 06:41:39;;;;;;;25.38;15.98;;;2.80;99.90;;;;;;7374379;19;20109;-61
2023/02/28 06:44:13;;;;;;;23.35;16.25;;;2.80;99.90;;;;;;7370757;19;20026;-61
2023/02/28 06:46:41;;;;;;;25.95;17.67;;;2.80;99.90;;;;;;7371763;19;20041;-64
2023/02/28 06:49:08;;;;;;;25.38;17.75;;;2.80;99.90;;;;;;7368029;19;20106;-65
2023/02/28 06:51:39;;;;;;;24.23;17.13;;;2.80;99.90;;;;;;7370678;19;20041;-65
2023/02/28 06:54:08;;;;;;;24.52;17.35;;;2.90;99.90;;;;;;7373914;19;20022;-64
2023/02/28 06:56:36;;;;;;;25.45;16.92;;;2.90;99.90;;;;;;7370115;19;20030;-64
2023/02/28 06:59:04;;;;;;;23.55;16.08;;;2.90;99.90;;;;;;7368994;19;20026;-65
2023/02/28 07:01:33;;;;;;;22.20;15.63;;;2.90;99.90;;;;;;7364771;19;20014;-64
2023/02/28 07:04:01;;;;;;;23.80;15.68;;;2.90;99.90;;;;;;7372937;19;20099;-64
2023/02/28 07:06:28;;;;;;;22.75;16.58;;;2.90;99.90;;;;;;7369530;19;20478;-60
2023/02/28 07:08:54;;;;;;;25.13;16.60;;;2.90;99.90;;;;;;7372930;19;20014;-60
2023/02/28 07:11:26;;;;;;;23.98;16.65;;;2.90;99.90;;;;;;7367502;19;20477;-60
2023/02/28 07:13:54;;;;;;;21.90;16.00;;;2.90;99.90;;;;;;7374232;19;20398;-60
2023/02/28 07:16:23;;;;;;;23.23;16.52;;;2.90;99.90;;;;;;7371115;19;20021;-60
2023/02/28 07:18:52;;;;;;;22.67;16.10;;;2.90;99.90;;;;;;7372048;19;20010;-60
2023/02/28 07:21:18;;;;;;;22.30;16.35;;;2.90;99.90;;;;;;7368136;19;20026;-60
2023/02/28 07:23:45;;;;;;;22.02;15.75;;;3.00;99.90;;;;;;7366211;19;20010;-60
2023/02/28 07:26:15;;;;;;;22.30;15.60;;;3.00;99.90;;;;;;7370855;19;20018;-60
2023/02/28 07:28:42;;;;;;;22.33;15.90;;;3.00;99.90;;;;;;7372807;19;20018;-63
2023/02/28 07:31:10;;;;;;;23.08;15.70;;;3.00;99.90;;;;;;7365751;19;20014;-60
2023/02/28 07:33:37;;;;;;;24.73;16.88;;;3.10;99.90;;;;;;7367513;19;20057;-60
2023/02/28 07:36:06;;;;;;;23.63;15.90;;;3.10;99.90;;;;;;7366250;19;20025;-60
2023/02/28 07:38:37;;;;;;;21.77;15.52;;;3.20;99.90;;;;;;7366030;19;20792;-60
2023/02/28 07:41:04;;;;;;;23.63;15.40;;;3.20;99.90;;;;;;7367136;19;20048;-60
2023/02/28 07:43:32;;;;;;;25.15;15.77;;;3.40;99.90;;;;;;7366620;19;20025;-60
2023/02/28 07:46:08;;;;;;;24.55;17.13;;;3.60;99.90;;;;;;7368452;19;20022;-60
2023/02/28 07:48:34;;;;;;;21.35;16.38;;;3.80;99.90;;;;;;7370909;19;20025;-60
2023/02/28 07:51:01;;;;;;;17.45;13.73;;;3.90;99.90;;;;;;7368554;19;20019;-61
2023/02/28 07:53:28;;;;;;;19.70;14.73;;;3.90;99.90;;;;;;7366577;19;20868;-60
2023/02/28 07:55:57;;;;;;;17.40;13.77;;;4.00;99.90;;;;;;7369071;19;20402;-61
2023/02/28 07:58:25;;;;;;;17.55;13.02;;;4.10;99.90;;;;;;7368509;19;20014;-61
2023/02/28 08:00:51;;;;;;;16.10;12.85;;;4.10;99.90;;;;;;7368655;19;20049;-60
2023/02/28 08:03:20;;;;;;;18.48;12.95;;;4.10;99.90;;;;;;7368264;19;20018;-60
2023/02/28 08:05:52;;;;;;;16.33;13.00;;;4.20;99.90;;;;;;7370438;19;20185;-60
2023/02/28 08:08:18;;;;;;;18.52;12.15;;;4.50;99.90;;;;;;7365383;19;20022;-61
2023/02/28 08:10:44;;;;;;;15.20;12.43;;;4.70;99.90;;;;;;7369372;19;20470;-62
2023/02/28 08:13:11;;;;;;;18.23;12.55;;;4.80;99.90;;;;;;7369378;19;20591;-61
2023/02/28 08:15:37;;;;;;;15.75;11.30;;;4.80;99.90;;;;;;7368693;19;20014;-61
2023/02/28 08:18:05;;;;;;;14.13;10.38;;;4.90;99.90;;;;;;7366889;19;20045;-60
2023/02/28 08:20:31;;;;;;;14.15;10.50;;;4.90;99.90;;;;;;7370226;19;20035;-61
2023/02/28 08:22:59;;;;;;;15.98;10.88;;;4.80;99.90;;;;;;7368530;19;20038;-61
2023/02/28 08:25:26;;;;;;;15.63;11.68;;;4.80;99.90;;;;;;7366442;19;20015;-61
2023/02/28 08:27:52;;;;;;;15.10;11.38;;;4.80;99.90;;;;;;7369078;19;20015;-61
2023/02/28 08:30:19;;;;;;;13.40;10.43;;;4.80;99.90;;;;;;7368940;19;20036;-61
2023/02/28 08:32:46;;;;;;;14.15;12.02;;;4.90;99.90;;;;;;7362259;19;20014;-61
2023/02/28 08:35:16;;;;;;;15.60;11.60;;;4.90;99.90;;;;;;7369422;19;20010;-61
2023/02/28 08:37:42;;;;;;;15.43;11.13;;;4.90;99.90;;;;;;7369554;19;20667;-61
2023/02/28 08:40:09;;;;;;;17.17;12.10;;;4.90;99.90;;;;;;7369341;19;20437;-64
2023/02/28 08:42:36;;;;;;;18.40;11.55;;;5.00;99.90;;;;;;7363740;19;20501;-61
2023/02/28 08:45:04;;;;;;;16.55;11.93;;;5.00;99.90;;;;;;7368512;19;20014;-60
2023/02/28 08:47:30;;;;;;;14.75;11.77;;;5.10;99.90;;;;;;7367993;19;20082;-61
2023/02/28 08:49:57;;;;;;;15.43;10.75;;;5.30;99.90;;;;;;7367825;19;20018;-61
2023/02/28 08:52:23;;;;;;;14.30;11.73;;;5.40;99.90;;;;;;7364631;19;20021;-60
2023/02/28 08:54:52;;;;;;;14.57;11.85;;;5.80;99.90;;;;;;7367117;19;20363;-61
2023/02/28 08:57:18;;;;;;;12.63;10.90;;;6.10;99.90;;;;;;7366652;19;20070;-60
2023/02/28 08:59:45;;;;;;;15.80;11.95;;;6.30;99.90;;;;;;7367309;19;20031;-60
2023/02/28 09:02:14;;;;;;;13.90;11.32;;;6.80;99.90;;;;;;7365190;19;20032;-61
2023/02/28 09:04:41;;;;;;;15.35;10.02;;;7.70;99.90;;;;;;7369787;19;20038;-61
2023/02/28 09:07:07;;;;;;;12.25;9.70;;;7.90;99.90;;;;;;7366023;19;20577;-61
2023/02/28 09:09:53;;;;;;;14.02;10.55;;;8.40;99.90;;;;;;7368310;19;20563;-61
2023/02/28 09:12:24;;;;;;;11.05;8.50;;;8.40;99.90;;;;;;7370262;19;20022;-61
2023/02/28 09:14:51;;;;;;;11.67;8.10;;;8.60;99.90;;;;;;7369141;19;20145;-61
2023/02/28 09:17:18;;;;;;;11.70;8.43;;;9.00;99.90;;;;;;7372956;19;20291;-61
2023/02/28 09:19:44;;;;;;;10.70;8.30;;;8.70;99.90;;;;;;7373522;19;20017;-61
2023/02/28 09:22:11;;;;;;;10.57;8.30;;;8.80;99.90;;;;;;7374598;19;20018;-66
2023/02/28 09:24:38;;;;;;;10.52;8.43;;;9.40;99.90;;;;;;7373478;19;20600;-66
2023/02/28 09:27:05;;;;;;;10.82;8.85;;;9.40;99.90;;;;;;7376045;19;20030;-65
2023/02/28 09:29:33;;;;;;;10.35;8.00;;;9.90;99.90;;;;;;7373613;19;20014;-66
2023/02/28 09:32:05;;;;;;;9.65;7.82;;;10.00;99.90;;;;;;7374713;19;20450;-61
2023/02/28 09:34:32;;;;;;;10.55;7.50;;;10.20;99.90;;;;;;7370305;19;20493;-62
2023/02/28 09:36:58;;;;;;;8.32;6.68;;;9.60;99.90;;;;;;7370844;19;20066;-61
2023/02/28 09:39:26;;;;;;;10.23;7.63;;;9.60;99.90;;;;;;7374003;19;20019;-61
2023/02/28 09:41:55;;;;;;;12.80;7.38;;;9.60;99.90;;;;;;7371129;19;20409;-62
2023/02/28 09:44:21;;;;;;;8.85;6.90;;;9.50;99.90;;;;;;7371489;19;20023;-61
2023/02/28 09:46:55;;;;;;;11.70;7.93;;;9.10;99.90;;;;;;7374955;19;20011;-61
2023/02/28 09:49:25;;;;;;;10.30;7.72;;;8.70;99.90;;;;;;7375292;19;20021;-61
2023/02/28 09:51:59;;;;;;;8.77;6.38;;;8.80;99.90;;;;;;7375768;19;20362;-62
2023/02/28 09:54:30;;;;;;;9.13;6.40;;;10.00;99.90;;;;;;7373056;19;20034;-61
2023/02/28 09:57:07;;;;;;;9.13;7.30;;;11.00;99.90;;;;;;7381916;19;20816;-62
2023/02/28 09:59:53;;;;;;;6.05;4.22;;;12.30;99.90;;;;;;7383848;19;20379;-62
2023/02/28 10:02:38;;;;;;;8.20;4.80;;;13.00;99.90;;;;;;7377785;19;20090;-62
2023/02/28 10:05:17;;;;;;;8.95;4.32;;;13.20;71.80;;;;;;7378248;19;20563;-62
2023/02/28 10:08:11;;;;;;;9.00;4.45;;;13.20;70.60;;;;;;7374988;19;20383;-62
2023/02/28 10:10:45;;;;;;;6.00;4.28;;;13.50;75.60;;;;;;7373459;19;20022;-62
2023/02/28 10:13:33;;;;;;;5.90;3.83;;;13.80;74.20;;;;;;7377361;19;20018;-62
2023/02/28 10:16:11;;;;;;;6.63;3.53;;;13.70;64.80;;;;;;7377247;19;20030;-62
2023/02/28 10:18:54;;;;;;;6.57;3.63;;;13.80;62.70;;;;;;7376594;19;20544;-62
2023/02/28 10:21:29;;;;;;;5.78;3.40;;;13.80;63.20;;;;;;7381012;19;20023;-63
2023/02/28 10:24:04;;;;;;;5.88;3.50;;;14.60;61.40;;;;;;7376194;19;20028;-62
2023/02/28 10:26:33;;;;;;;6.95;3.40;;;14.60;60.40;;;;;;7381141;19;20011;-62
2023/02/28 10:28:59;;;;;;;4.20;2.83;;;14.70;63.10;;;;;;7379374;19;20014;-63
2023/02/28 10:31:26;;;;;;;4.07;2.80;;;15.10;60.80;;;;;;7375929;19;20041;-63
2023/02/28 10:33:52;;;;;;;6.30;3.33;;;15.70;59.80;;;;;;7380311;19;20022;-63
2023/02/28 10:36:21;;;;;;;4.78;2.60;;;15.60;57.60;;;;;;7381068;19;20015;-63
2023/02/28 10:38:52;;;;;;;7.43;3.28;;;14.60;58.10;;;;;;7376653;19;20380;-63
2023/02/28 10:41:28;;;;;;;4.55;2.78;;;14.80;58.10;;;;;;7378131;19;20026;-63
2023/02/28 10:44:23;;;;;;;6.20;3.17;;;15.10;55.00;;;;;;7376717;19;20361;-63
2023/02/28 10:46:51;;;;;;;4.88;2.40;;;15.70;54.10;;;;;;7379587;19;20053;-63
2023/02/28 10:49:22;;;;;;;6.53;2.65;;;15.60;53.90;;;;;;7378086;19;20019;-63
2023/02/28 10:51:58;;;;;;;3.90;2.20;;;15.20;52.50;;;;;;7379886;19;20469;-63
2023/02/28 10:54:31;;;;;;;6.72;2.83;;;15.50;51.90;;;;;;7375377;19;20052;-63
2023/02/28 10:57:18;;;;;;;4.38;2.65;;;15.10;50.80;;;;;;7375095;19;20063;-63
2023/02/28 10:59:45;;;;;;;4.38;2.67;;;15.10;49.70;;;;;;7373932;19;20052;-63
2023/02/28 11:02:37;;;;;;;4.70;2.33;;;15.60;51.10;;;;;;7375174;19;20018;-64
2023/02/28 11:05:32;;;;;;;3.63;2.20;;;16.50;49.00;;;;;;7374059;19;20039;-64
2023/02/28 11:08:13;;;;;;;5.00;2.58;;;16.50;48.20;;;;;;7378688;19;20018;-63
2023/02/28 11:10:53;;;;;;;3.90;2.17;;;16.20;50.50;;;;;;7376673;19;20052;-64
2023/02/28 11:13:24;;;;;;;4.80;2.33;;;16.90;49.70;;;;;;7377830;19;20078;-66
2023/02/28 11:15:57;;;;;;;5.32;2.30;;;16.60;47.40;;;;;;7378084;19;20500;-63
2023/02/28 11:18:31;;;;;;;4.78;2.83;;;17.10;48.60;;;;;;7378648;19;20018;-65
2023/02/28 11:21:00;;;;;;;5.82;2.50;;;17.00;46.50;;;;;;7376148;19;20029;-66
2023/02/28 11:23:31;;;;;;;3.25;2.10;;;16.60;48.70;;;;;;7375762;19;20877;-66
2023/02/28 11:26:02;;;;;;;3.70;2.17;;;17.10;47.50;;;;;;7374068;19;20098;-65
2023/02/28 11:28:41;;;;;;;4.72;2.20;;;17.00;46.60;;;;;;7377017;19;20654;-65
2023/02/28 11:31:13;;;;;;;4.22;2.30;;;16.80;48.30;;;;;;7377623;19;20021;-64
2023/02/28 11:33:55;;;;;;;6.63;2.45;;;17.20;47.80;;;;;;7376579;19;20014;-65
2023/02/28 11:36:24;;;;;;;;;;;17.70;46.20;;;;;;7375932;19;20022;-65
2023/02/28 11:38:52;;;;;;;5.40;2.30;;;17.10;44.60;;;;;;7375522;19;19922;-65
2023/02/28 11:41:36;;;;;;;6.45;2.20;;;17.30;47.00;;;;;;7376945;19;20022;-65
2023/02/28 11:44:32;;;;;;;4.40;2.45;;;17.70;45.10;;;;;;7374748;19;20101;-65
2023/02/28 11:47:10;;;;;;;4.72;2.25;;;17.90;46.90;;;;;;7375630;19;20018;-65
2023/02/28 11:49:59;;;;;;;4.47;2.80;;;17.40;45.90;;;;;;7376886;19;20014;-68
2023/02/28 11:52:48;;;;;;;4.47;2.33;;;17.30;45.20;;;;;;7375027;19;20018;-65
2023/02/28 11:55:25;;;;;;;6.00;2.35;;;16.70;47.20;;;;;;7375021;19;20030;-65
2023/02/28 11:58:32;;;;;;;3.65;2.30;;;16.90;46.10;;;;;;7372811;19;20050;-65
2023/02/28 12:01:28;;;;;;;5.70;3.85;;;17.00;45.40;;;;;;7372278;19;20090;-65
2023/02/28 12:04:31;;;;;;;4.47;2.50;;;17.90;45.80;;;;;;7376036;19;20533;-65
2023/02/28 12:07:09;;;;;;;4.22;2.30;;;17.60;44.80;;;;;;7375676;19;20632;-62
2023/02/28 12:10:00;;;;;;;4.82;2.80;;;17.90;44.10;;;;;;7373906;19;20023;-63
2023/02/28 12:12:59;;;;;;;3.38;2.55;;;18.60;42.20;;;;;;7379422;19;20021;-63
2023/02/28 12:15:39;;;;;;;6.38;3.08;;;18.10;43.30;;;;;;7375774;19;20018;-63
2023/02/28 12:18:24;;;;;;;5.47;2.42;;;17.50;43.10;;;;;;7376324;19;20645;-63
2023/02/28 12:20:56;;;;;;;3.28;2.38;;;16.30;42.30;;;;;;7375741;19;20478;-63
2023/02/28 12:23:49;;;;;;;6.25;2.20;;;16.80;44.00;;;;;;7379503;19;20049;-66
2023/02/28 12:26:39;;;;;;;3.67;2.20;;;16.80;43.30;;;;;;7376046;19;20042;-63
2023/02/28 12:29:16;;;;;;;4.88;2.15;;;16.80;43.10;;;;;;7374714;19;20030;-67
2023/02/28 12:32:03;;;;;;;4.57;2.40;;;16.70;44.30;;;;;;7377532;19;20410;-66
2023/02/28 12:34:35;;;;;;;4.32;2.28;;;17.10;42.00;;;;;;7376244;19;20010;-67
2023/02/28 12:37:07;;;;;;;5.32;2.10;;;17.00;43.30;;;;;;7377559;19;20486;-66
2023/02/28 12:39:41;;;;;;;3.95;2.40;;;17.30;43.00;;;;;;7374941;19;20485;-67
2023/02/28 12:42:22;;;;;;;4.65;1.67;;;17.00;40.70;;;;;;7374339;19;20027;-66
2023/02/28 12:44:58;;;;;;;4.00;2.00;;;17.20;41.50;;;;;;7372627;19;20022;-64
2023/02/28 12:47:25;;;;;;;4.30;2.35;;;17.70;41.50;;;;;;7377448;19;20127;-64
2023/02/28 12:50:11;;;;;;;4.60;2.05;;;17.10;41.30;;;;;;7380191;19;20033;-64
2023/02/28 12:52:49;;;;;;;7.22;3.53;;;17.90;41.70;;;;;;7382156;19;20010;-64
2023/02/28 12:55:45;;;;;;;4.25;2.70;;;18.10;43.80;;;;;;7380730;19;20025;-64
2023/02/28 12:58:22;;;;;;;3.28;2.05;;;18.40;40.90;;;;;;7385015;19;20023;-64
2023/02/28 13:01:10;;;;;;;4.18;2.40;;;18.10;39.90;;;;;;7381625;19;20025;-64
2023/02/28 13:03:47;;;;;;;4.35;2.28;;;18.20;40.80;;;;;;7376171;19;20022;-64
2023/02/28 13:06:29;;;;;;;4.18;2.58;;;18.30;40.30;;;;;;7381436;19;20042;-64
2023/02/28 13:09:15;;;;;;;3.42;2.70;;;17.60;41.20;;;;;;7382776;19;20014;-64
2023/02/28 13:11:52;;;;;;;2.92;2.25;;;17.80;40.20;;;;;;7381360;19;20019;-64
2023/02/28 13:14:20;;;;;;;3.63;2.20;;;17.40;39.40;;;;;;7383617;19;20078;-64